Time;durP1;ratioP1;P1;durP2;ratioP2;P2;SDS_P1;SDS_P2;PMS_P1;PMS_P2;Temp;Humidity;BMP_temperature;BMP_pressure;BME280_temperature;BME280_humidity;BME280_pressure;Samples;Min_cycle;Max_cycle;Signal;HPM_P1;HPM_P2
2024/01/13 00:00:31;;;;;;;133.25;40.83;;;;;;;-144.05;88.13;57029.38;5100044;28;20039;-80
2024/01/13 00:02:57;;;;;;;115.55;41.00;;;;;;;-144.05;88.19;57025.13;5094378;28;20032;-82
2024/01/13 00:05:24;;;;;;;129.68;42.42;;;;;;;-144.05;88.33;57052.75;5090894;28;20043;-82
2024/01/13 00:07:51;;;;;;;117.72;38.55;;;;;;;-144.05;88.03;57020.88;5094785;28;20043;-82
2024/01/13 00:10:17;;;;;;;114.55;38.55;;;;;;;-144.05;87.92;57014.50;5096932;28;20032;-81
2024/01/13 00:12:44;;;;;;;117.38;37.80;;;;;;;-144.05;88.30;57031.50;5090147;28;20209;-83
2024/01/13 00:15:10;;;;;;;117.57;39.67;;;;;;;-144.05;88.23;57014.50;5091434;28;20039;-83
2024/01/13 00:17:36;;;;;;;126.05;40.40;;;;;;;-144.05;87.91;57042.13;5092133;28;20028;-79
2024/01/13 00:20:03;;;;;;;121.05;38.92;;;;;;;-144.05;87.62;57003.88;5092771;28;20107;-81
2024/01/13 00:22:29;;;;;;;102.47;37.55;;;;;;;-144.05;87.75;57018.75;5091857;28;20062;-83
2024/01/13 00:24:56;;;;;;;107.75;35.92;;;;;;;-144.05;87.68;57040.00;5092408;28;20055;-84
2024/01/13 00:27:22;;;;;;;114.82;39.38;;;;;;;-144.05;88.06;57008.13;5102464;28;20035;-83
2024/01/13 00:29:48;;;;;;;104.53;36.22;;;;;;;-144.05;87.61;57023.00;5101866;28;20084;-83
2024/01/13 00:32:14;;;;;;;112.57;38.42;;;;;;;-144.05;87.87;57050.63;5102387;28;20107;-81
2024/01/13 00:34:41;;;;;;;109.30;37.63;;;;;;;-144.05;87.43;57086.72;5102877;28;20051;-80
2024/01/13 00:37:07;;;;;;;113.47;37.22;;;;;;;-144.05;87.93;57012.38;5095562;28;20028;-79
2024/01/13 00:39:33;;;;;;;109.38;38.67;;;;;;;-144.05;87.78;57029.38;5097448;28;20476;-82
2024/01/13 00:42:00;;;;;;;97.28;35.33;;;;;;;-144.05;87.80;57010.25;5108261;28;20062;-81
2024/01/13 00:44:26;;;;;;;106.93;38.20;;;;;;;-144.05;88.05;57010.25;5109021;28;20036;-80
2024/01/13 00:46:52;;;;;;;106.07;38.70;;;;;;;-144.05;87.49;57040.00;5111375;28;20034;-81
2024/01/13 00:49:18;;;;;;;103.68;34.30;;;;;;;-144.05;87.19;57006.00;5094091;28;20032;-82
2024/01/13 00:51:45;;;;;;;113.78;36.20;;;;;;;-144.05;87.43;56980.53;5101711;28;20036;-82
2024/01/13 00:54:11;;;;;;;107.22;37.83;;;;;;;-144.05;87.76;57052.75;5104898;28;20032;-84
2024/01/13 00:56:37;;;;;;;105.43;34.42;;;;;;;-144.05;88.12;57025.13;5107470;28;20066;-82
2024/01/13 00:59:03;;;;;;;111.22;34.67;;;;;;;-144.05;87.66;57031.50;5103132;28;20036;-79
2024/01/13 01:01:30;;;;;;;107.60;36.22;;;;;;;-144.05;87.15;57046.38;5092294;28;20043;-81
2024/01/13 01:03:56;;;;;;;111.72;37.75;;;;;;;-144.05;87.47;57042.13;5098892;28;20054;-81
2024/01/13 01:06:22;;;;;;;104.35;37.20;;;;;;;-144.05;87.57;57012.38;5089746;28;20028;-82
2024/01/13 01:08:48;;;;;;;110.93;38.88;;;;;;;-144.05;87.00;57018.75;5098515;28;20081;-83
2024/01/13 01:11:15;;;;;;;110.85;36.97;;;;;;;-144.05;87.13;57023.00;5098252;28;20027;-83
2024/01/13 01:13:41;;;;;;;104.95;39.10;;;;;;;-144.05;87.25;57048.50;5094099;28;20526;-82
2024/01/13 01:16:08;;;;;;;95.38;38.10;;;;;;;-144.05;87.60;57012.38;5092978;28;20081;-81
2024/01/13 01:18:34;;;;;;;102.82;36.58;;;;;;;-144.05;87.80;57020.88;5094179;28;20035;-82
2024/01/13 01:21:00;;;;;;;103.75;37.50;;;;;;;-144.05;87.15;57031.50;5093419;28;20031;-82
2024/01/13 01:23:26;;;;;;;108.47;37.83;;;;;;;-144.05;87.52;57035.75;5095628;28;20163;-80
2024/01/13 01:25:53;;;;;;;96.53;34.95;;;;;;;-144.05;87.04;57031.50;5110367;28;20372;-82
2024/01/13 01:28:22;;;;;;;94.32;34.38;;;;;;;-144.05;86.65;57018.75;5115540;28;20028;-84
2024/01/13 01:30:49;;;;;;;89.72;31.98;;;;;;;-144.05;86.83;57052.75;5105412;28;20057;-82
2024/01/13 01:33:15;;;;;;;82.43;31.40;;;;;;;-144.05;86.87;57010.25;5098838;28;20040;-82
2024/01/13 01:35:41;;;;;;;88.88;34.15;;;;;;;-144.05;86.79;57040.00;5097015;28;20097;-84
2024/01/13 01:38:07;;;;;;;81.28;32.60;;;;;;;-144.05;87.04;57046.38;5095343;28;20051;-84
2024/01/13 01:40:35;;;;;;;83.93;31.92;;;;;;;-144.05;87.09;57054.88;5103298;28;20402;-83
2024/01/13 01:43:01;;;;;;;76.15;30.38;;;;;;;-144.05;87.30;57063.34;5093038;28;20031;-82
2024/01/13 01:45:27;;;;;;;78.05;29.55;;;;;;;-144.05;87.20;57044.25;5093531;28;20405;-83
2024/01/13 01:47:55;;;;;;;79.38;31.35;;;;;;;-144.05;87.09;57035.75;5102756;28;20412;-81
2024/01/13 01:50:21;;;;;;;74.50;30.67;;;;;;;-144.05;87.05;57010.25;5111098;28;20051;-82
2024/01/13 01:52:48;;;;;;;74.88;31.52;;;;;;;-144.05;87.12;57052.75;5097285;28;20424;-82
2024/01/13 01:55:14;;;;;;;73.95;31.38;;;;;;;-144.05;87.41;57029.38;5105222;28;20119;-82
2024/01/13 01:57:40;;;;;;;86.25;34.00;;;;;;;-144.05;87.22;57050.63;5113894;28;20036;-83
2024/01/13 02:00:09;;;;;;;79.78;31.95;;;-1.10;99.90;;;-144.05;87.04;57031.50;5124881;27;20116;-80
2024/01/13 02:02:36;;;;;;;79.90;31.55;;;;;;;-144.05;86.90;57040.00;5110083;28;20112;-83
2024/01/13 02:05:03;;;;;;;80.88;32.92;;;;;;;-144.05;86.72;57027.25;5093571;28;20143;-81
2024/01/13 02:07:32;;;;;;;87.82;33.60;;;;;;;-144.05;86.55;57042.13;5099383;28;20039;-80
2024/01/13 02:09:59;;;;;;;78.57;33.90;;;;;;;-144.05;86.57;57016.63;5099647;28;20443;-82
2024/01/13 02:12:25;;;;;;;84.53;34.83;;;;;;;-144.05;86.72;57020.88;5093907;28;20028;-79
2024/01/13 02:14:54;;;;;;;86.10;33.92;;;;;;;-144.05;86.65;57012.38;5094204;28;20512;-84
2024/01/13 02:17:22;;;;;;;79.63;32.83;;;;;;;-144.05;86.48;57020.88;5100328;28;20461;-83
2024/01/13 02:19:48;;;;;;;86.97;34.58;;;;;;;-144.05;87.08;57044.25;5102500;28;20093;-83
2024/01/13 02:22:14;;;;;;;83.95;33.45;;;;;;;-144.05;86.81;57010.25;5105308;28;20051;-82
2024/01/13 02:24:41;;;;;;;86.30;34.92;;;;;;;-144.05;86.97;57020.88;5108844;28;20141;-83
2024/01/13 02:27:07;;;;;;;88.40;33.28;;;;;;;-144.05;86.70;57003.88;5093962;28;20036;-83
2024/01/13 02:29:33;;;;;;;77.13;31.55;;;;;;;-144.05;86.75;57052.75;5101225;28;20063;-83
2024/01/13 02:31:59;;;;;;;76.90;33.40;;;;;;;-144.05;86.59;57044.25;5095241;28;20031;-83
2024/01/13 02:34:25;;;;;;;78.43;31.67;;;;;;;-144.05;86.70;57014.50;5105229;28;20032;-83
2024/01/13 02:36:52;;;;;;;77.88;33.10;;;;;;;-144.05;86.60;57020.88;5108702;28;20024;-82
2024/01/13 02:39:18;;;;;;;74.68;31.42;;;;;;;-144.05;86.67;57042.13;5099574;28;20061;-83
2024/01/13 02:41:49;;;;;;;83.53;33.75;;;3.40;99.90;;;-144.05;86.42;57037.88;5109800;28;20061;-82
2024/01/13 02:44:15;;;;;;;78.53;31.65;;;;;;;-144.05;86.51;57014.50;5093808;28;20025;-84
2024/01/13 02:46:41;;;;;;;79.88;34.30;;;;;;;-144.05;86.79;57033.63;5108063;28;20638;-82
2024/01/13 02:49:08;;;;;;;75.25;29.80;;;2.30;99.90;;;-144.05;86.39;57018.75;5106215;28;20496;-81
2024/01/13 02:51:34;;;;;;;77.63;30.73;;;;;;;-144.05;86.84;57050.63;5095721;28;20130;-82
2024/01/13 02:54:01;;;;;;;76.97;30.50;;;;;;;-144.05;86.38;57046.38;5098576;28;20027;-82
2024/01/13 02:56:27;;;;;;;78.25;31.42;;;;;;;-144.05;86.35;57071.84;5097311;28;20131;-83
2024/01/13 02:58:53;;;;;;;70.63;30.95;;;;;;;-144.05;86.37;57052.75;5101992;28;20031;-82
2024/01/13 03:01:19;;;;;;;67.25;29.20;;;;;;;-144.05;86.16;57040.00;5093809;28;20093;-84
2024/01/13 03:03:49;;;;;;;72.78;30.48;;;;;;;-144.05;85.87;57010.25;5093529;28;20047;-84
2024/01/13 03:06:15;;;;;;;76.05;29.88;;;;;;;-144.05;86.04;57040.00;5100386;28;20092;-82
2024/01/13 03:08:41;;;;;;;67.00;28.77;;;;;;;-144.05;86.26;57044.25;5102314;28;20032;-84
2024/01/13 03:11:11;;;;;;;72.25;31.58;;;;;;;-144.05;86.04;57044.25;5093944;28;20126;-82
2024/01/13 03:13:38;;;;;;;71.78;29.67;;;;;;;-144.05;85.48;57048.50;5102495;28;20035;-83
2024/01/13 03:16:06;;;;;;;71.20;29.58;;;;;;;-144.05;85.50;57016.63;5110365;28;20042;-82
2024/01/13 03:18:32;;;;;;;71.70;30.92;;;;;;;-144.05;85.49;57061.22;5101477;28;20085;-82
2024/01/13 03:20:58;;;;;;;71.22;28.48;;;;;;;-144.05;85.65;57040.00;5104546;28;20122;-82
2024/01/13 03:23:25;;;;;;;78.18;28.77;;;;;;;-144.05;85.73;57059.09;5111406;27;20035;-82
2024/01/13 03:25:51;;;;;;;71.35;27.73;;;;;;;-144.05;86.39;57054.88;5107994;28;20036;-81
2024/01/13 03:28:17;;;;;;;64.50;27.38;;;;;;;-144.05;86.48;57056.97;5103106;28;20032;-84
2024/01/13 03:30:43;;;;;;;61.78;27.50;;;;;;;-144.05;86.15;57035.75;5099311;28;20028;-82
2024/01/13 03:33:09;;;;;;;63.60;27.48;;;;;;;-144.05;85.56;57023.00;5109577;28;20020;-83
2024/01/13 03:35:35;;;;;;;56.65;27.02;;;;;;;-144.05;85.46;57035.75;5092630;28;20051;-82
2024/01/13 03:38:02;;;;;;;69.00;28.30;;;;;;;-144.05;85.48;57052.75;5103683;28;20095;-82
2024/01/13 03:40:29;;;;;;;62.92;26.27;;;;;;;-144.05;85.80;56997.50;5101930;28;20036;-84
2024/01/13 03:42:55;;;;;;;56.05;25.42;;;;;;;-144.05;86.11;57031.50;5096601;28;20358;-82
2024/01/13 03:45:21;;;;;;;58.25;25.70;;;;;;;-144.05;85.64;57035.75;5107075;28;20028;-83
2024/01/13 03:47:48;;;;;;;57.90;25.10;;;;;;;-144.05;86.00;57044.25;5106491;28;20477;-83
2024/01/13 03:50:14;;;;;;;53.38;25.23;;;;;;;-144.05;85.75;57040.00;5103926;28;20030;-83
2024/01/13 03:52:40;;;;;;;53.75;25.30;;;;;;;-144.05;85.66;57048.50;5107597;28;20390;-82
2024/01/13 03:55:08;;;;;;;47.95;23.10;;;;;;;-144.05;85.67;57006.00;5102741;28;20020;-83
2024/01/13 03:57:34;;;;;;;54.78;24.40;;;;;;;-144.05;85.61;57046.38;5100203;28;20028;-83
2024/01/13 04:00:00;;;;;;;52.38;26.60;;;;;;;-144.05;85.12;57040.00;5102419;28;20031;-83
2024/01/13 04:02:27;;;;;;;50.83;23.25;;;;;;;-144.05;85.08;57020.88;5115939;28;20042;-81
2024/01/13 04:04:54;;;;;;;55.35;25.42;;;;;;;-144.05;84.93;57054.88;5108519;28;20128;-81
2024/01/13 04:07:20;;;;;;;50.22;22.92;;;;;;;-144.05;84.87;57082.47;5102951;28;20055;-83
2024/01/13 04:09:46;;;;;;;51.10;22.75;;;;;;;-144.05;84.96;57046.38;5107257;28;20031;-82
2024/01/13 04:12:12;;;;;;;52.13;23.02;;;;;;;-144.05;85.02;57044.25;5102706;28;20031;-82
2024/01/13 04:14:39;;;;;;;47.70;23.85;;;;;;;-144.05;85.11;57054.88;5121145;28;20031;-83
2024/01/13 04:17:05;;;;;;;51.28;24.38;;;;;;;-144.05;84.66;57035.75;5093864;28;20108;-83
2024/01/13 04:19:31;;;;;;;50.78;24.42;;;;;;;-144.05;85.55;57031.50;5093811;28;20028;-83
2024/01/13 04:21:57;;;;;;;52.75;24.08;;;;;;;-144.05;85.04;56999.63;5109121;28;20048;-81
2024/01/13 04:24:23;;;;;;;50.17;24.65;;;;;;;-144.05;84.93;57046.38;5104372;28;20063;-84
2024/01/13 04:26:50;;;;;;;48.58;23.38;;;;;;;-144.05;84.48;57042.13;5103917;28;20122;-83
2024/01/13 04:29:18;;;;;;;52.17;25.30;;;;;;;-144.05;83.92;57018.75;5099907;28;20074;-81
2024/01/13 04:31:45;;;;;;;48.08;22.17;;;;;;;-144.05;84.07;57025.13;5099592;28;20565;-84
2024/01/13 04:34:11;;;;;;;43.33;23.38;;;;;;;-144.05;84.57;57027.25;5103697;28;20492;-82
2024/01/13 04:36:37;;;;;;;49.45;22.65;;;;;;;-144.05;83.57;57042.13;5106592;28;20067;-83
2024/01/13 04:39:03;;;;;;;47.42;23.67;;;;;;;-144.05;83.74;57033.63;5092491;28;20028;-81
2024/01/13 04:41:30;;;;;;;42.22;21.30;;;;;;;-144.05;83.55;57010.25;5092814;28;20023;-83
2024/01/13 04:43:56;;;;;;;47.63;21.80;;;;;;;-144.05;83.74;57067.59;5114316;28;20125;-84
2024/01/13 04:46:22;;;;;;;40.95;22.33;;;;;;;-144.05;83.69;57046.38;5118272;28;20032;-84
2024/01/13 04:48:48;;;;;;;42.80;21.67;;;;;;;-144.05;83.45;57050.63;5113006;28;20042;-85
2024/01/13 04:51:14;;;;;;;45.47;23.00;;;;;;;-144.05;83.40;57018.75;5112182;28;20540;-84
2024/01/13 04:53:41;;;;;;;45.05;20.15;;;;;;;-144.05;83.25;57042.13;5124208;28;20123;-84
2024/01/13 04:56:07;;;;;;;40.45;20.55;;;;;;;-144.05;82.86;57003.88;5102547;28;20385;-83
2024/01/13 04:58:34;;;;;;;40.42;19.95;;;;;;;-144.05;83.24;57050.63;5098231;28;20089;-83
2024/01/13 05:01:00;;;;;;;40.58;20.17;;;;;;;-144.05;83.31;57040.00;5096523;28;20130;-82
2024/01/13 05:03:26;;;;;;;41.67;20.65;;;;;;;-144.05;83.51;57052.75;5097918;28;20374;-83
2024/01/13 05:05:54;;;;;;;35.15;19.73;;;;;;;-144.05;83.64;57042.13;5100153;28;20114;-81
2024/01/13 05:08:20;;;;;;;35.63;18.55;;;;;;;-144.05;83.38;57048.50;5098928;28;20032;-81
2024/01/13 05:10:46;;;;;;;36.90;20.40;;;;;;;-144.05;83.61;57042.13;5097877;28;20048;-82
2024/01/13 05:13:12;;;;;;;38.38;20.30;;;;;;;-144.05;83.13;57044.25;5111192;28;20583;-83
2024/01/13 05:15:39;;;;;;;43.10;21.85;;;;;;;-144.05;82.45;57023.00;5111359;28;20024;-83
2024/01/13 05:18:06;;;;;;;39.72;20.25;;;;;;;-144.05;82.95;57023.00;5120665;28;20040;-84
2024/01/13 05:20:32;;;;;;;38.67;21.35;;;;;;;-144.05;82.74;56997.50;5110339;28;20043;-81
2024/01/13 05:22:58;;;;;;;40.50;22.27;;;;;;;-144.05;83.33;57006.00;5110530;28;20042;-83
2024/01/13 05:25:25;;;;;;;45.45;21.63;;;;;;;-144.05;83.10;56978.41;5095454;28;20119;-81
2024/01/13 05:27:51;;;;;;;41.58;21.77;;;;;;;-144.05;83.59;57033.63;5109225;28;20145;-82
2024/01/13 05:30:17;;;;;;;43.00;22.30;;;;;;;-144.05;83.59;57018.75;5098794;28;20038;-81
2024/01/13 05:32:43;;;;;;;50.33;23.27;;;;;;;-144.05;83.00;57035.75;5108501;28;20035;-81
2024/01/13 05:35:10;;;;;;;49.97;23.13;;;;;;;-144.05;82.73;57003.88;5098844;28;20031;-82
2024/01/13 05:37:36;;;;;;;44.10;22.48;;;;;;;-144.05;82.70;57050.63;5101137;28;20119;-83
2024/01/13 05:40:04;;;;;;;45.30;23.60;;;;;;;-144.05;83.08;57065.47;5103142;28;20055;-81
2024/01/13 05:42:30;;;;;;;44.17;23.15;;;;;;;-144.05;83.08;57027.25;5100950;28;20110;-82
2024/01/13 05:44:56;;;;;;;49.58;25.60;;;;;;;-144.05;82.99;57023.00;5096029;28;20024;-81
2024/01/13 05:47:23;;;;;;;46.38;23.25;;;;;;;-144.05;82.86;57027.25;5100025;28;20035;-82
2024/01/13 05:49:52;;;;;;;49.38;21.90;;;;;;;-144.05;83.17;57065.47;5101593;28;20169;-82
2024/01/13 05:52:18;;;;;;;51.28;22.70;;;;;;;-144.05;83.12;57031.50;5102523;28;20032;-79
2024/01/13 05:54:44;;;;;;;42.15;22.13;;;;;;;-144.05;83.27;57027.25;5107520;28;20612;-81
2024/01/13 05:57:11;;;;;;;47.72;23.15;;;;;;;-144.05;83.23;57044.25;5105646;28;20024;-83
2024/01/13 05:59:37;;;;;;;47.67;20.83;;;;;;;-144.05;83.47;57031.50;5111543;28;20089;-82
2024/01/13 06:02:03;;;;;;;45.25;22.00;;;;;;;-144.05;83.94;57029.38;5098893;28;20450;-83
2024/01/13 06:04:29;;;;;;;47.42;23.20;;;;;;;-144.05;83.63;57029.38;5109725;28;20118;-83
2024/01/13 06:06:56;;;;;;;40.45;21.88;;;;;;;-144.05;83.54;57031.50;5116928;28;20039;-82
2024/01/13 06:09:22;;;;;;;42.45;22.58;;;;;;;-144.05;84.06;57018.75;5099571;28;20031;-83
2024/01/13 06:11:48;;;;;;;46.38;21.42;;;;;;;-144.05;83.79;57025.13;5110678;28;20043;-83
2024/01/13 06:14:14;;;;;;;41.83;22.15;;;;;;;-144.05;83.97;57010.25;5109849;28;20039;-80
2024/01/13 06:16:41;;;;;;;41.92;20.45;;;;;;;-144.05;83.84;57025.13;5112866;28;20032;-83
2024/01/13 06:19:07;;;;;;;45.00;22.42;;;;;;;-144.05;83.61;57033.63;5109464;28;20474;-81
2024/01/13 06:21:42;;;;;;;42.47;20.15;;;;;;;-144.05;83.88;56999.63;5104452;28;20095;-81
2024/01/13 06:24:10;;;;;;;41.05;20.85;;;;;;;-144.05;83.89;57035.75;5104912;28;20031;-81
2024/01/13 06:26:40;;;;;;;39.03;20.45;;;2.60;99.90;;;-144.05;84.32;57010.25;5112411;28;20024;-82
2024/01/13 06:29:07;;;;;;;40.08;19.98;;;;;;;-144.05;84.36;57016.63;5107628;28;20038;-83
2024/01/13 06:31:33;;;;;;;40.45;20.15;;;;;;;-144.05;84.13;57025.13;5113472;28;20039;-79
2024/01/13 06:34:00;;;;;;;47.10;20.05;;;;;;;-144.05;84.01;57016.63;5110100;28;20033;-82
2024/01/13 06:36:26;;;;;;;43.65;20.23;;;;;;;-144.05;84.29;57063.34;5099109;28;20035;-82
2024/01/13 06:38:53;;;;;;;39.47;19.77;;;;;;;-144.05;84.04;57046.38;5113383;28;20036;-82
2024/01/13 06:41:19;;;;;;;42.85;21.20;;;;;;;-144.05;84.35;57006.00;5109846;28;20111;-81
2024/01/13 06:43:45;;;;;;;48.53;20.55;;;;;;;-144.05;85.02;57035.75;5103294;28;20575;-80
2024/01/13 06:46:12;;;;;;;40.25;21.10;;;;;;;-144.05;85.36;57014.50;5112657;28;20038;-83
2024/01/13 06:48:38;;;;;;;47.03;20.58;;;;;;;-144.05;85.68;57046.38;5113549;28;20070;-79
2024/01/13 06:51:05;;;;;;;40.80;21.42;;;;;;;-144.05;85.60;57023.00;5111160;28;20039;-82
2024/01/13 06:53:31;;;;;;;50.30;22.05;;;;;;;-144.05;85.21;57040.00;5100258;28;20063;-81
2024/01/13 06:55:57;;;;;;;51.88;23.00;;;;;;;-144.05;85.32;57052.75;5110865;28;20027;-81
2024/01/13 06:58:23;;;;;;;48.13;22.92;;;;;;;-144.05;85.93;57042.13;5105432;28;20034;-78
2024/01/13 07:00:51;;;;;;;51.92;24.45;;;;;;;-144.05;85.96;57035.75;5100206;28;20032;-81
2024/01/13 07:03:17;;;;;;;57.08;24.77;;;;;;;-144.05;85.46;57061.22;5101724;28;20062;-83
2024/01/13 07:05:43;;;;;;;54.83;24.13;;;;;;;-144.05;85.22;57006.00;5109897;28;20032;-84
2024/01/13 07:08:09;;;;;;;55.70;24.10;;;;;;;-144.05;84.94;57048.50;5100449;28;20042;-81
2024/01/13 07:10:36;;;;;;;51.15;25.02;;;;;;;-144.05;84.80;57046.38;5113335;28;20066;-82
2024/01/13 07:13:02;;;;;;;45.47;23.90;;;;;;;-144.05;84.32;57016.63;5094434;28;20028;-81
2024/01/13 07:15:28;;;;;;;54.30;25.48;;;;;;;-144.05;84.72;57014.50;5101388;28;20036;-82
2024/01/13 07:17:57;;;;;;;55.15;24.83;;;;;;;-144.05;84.67;57054.88;5101478;28;20477;-82
2024/01/13 07:20:23;;;;;;;46.63;24.13;;;;;;;-144.05;84.22;57050.63;5099882;28;20035;-84
2024/01/13 07:22:50;;;;;;;58.53;25.02;;;;;;;-144.05;84.31;57031.50;5108945;28;20110;-83
2024/01/13 07:25:16;;;;;;;47.10;23.50;;;;;;;-144.05;82.99;57054.88;5102249;28;20063;-81
2024/01/13 07:27:43;;;;;;;45.38;21.80;;;;;;;-144.05;82.82;57076.09;5095219;28;20032;-81
2024/01/13 07:30:10;;;;;;;50.78;23.25;;;;;;;-144.05;82.47;57027.25;5098343;28;20404;-79
2024/01/13 07:32:36;;;;;;;46.42;22.30;;;;;;;-144.05;82.54;57054.88;5095091;28;20042;-81
2024/01/13 07:35:02;;;;;;;45.45;21.48;;;;;;;-144.05;82.86;57006.00;5105403;28;20024;-79
2024/01/13 07:37:29;;;;;;;44.20;22.98;;;;;;;-144.05;82.89;57052.75;5104120;28;20110;-79
2024/01/13 07:39:55;;;;;;;43.95;22.48;;;;;;;-144.05;82.32;57016.63;5109251;28;20067;-80
2024/01/13 07:42:21;;;;;;;48.55;23.52;;;;;;;-144.05;82.67;57012.38;5117719;27;20032;-78
2024/01/13 07:44:48;;;;;;;45.63;22.05;;;;;;;-144.05;81.72;57029.38;5102342;28;20024;-81
2024/01/13 07:47:14;;;;;;;47.17;22.65;;;;;;;-144.05;81.87;57018.75;5095349;28;20028;-85
2024/01/13 07:49:40;;;;;;;36.15;20.65;;;;;;;-144.05;82.50;57033.63;5104293;28;20164;-81
2024/01/13 07:52:07;;;;;;;39.13;19.52;;;3.20;99.90;;;-144.05;81.98;57065.47;5097312;28;20610;-78
2024/01/13 07:54:33;;;;;;;39.83;20.70;;;;;;;-144.05;82.35;57042.13;5094227;28;20103;-80
2024/01/13 07:56:59;;;;;;;39.30;20.30;;;;;;;-144.05;81.95;57046.38;5092363;28;20363;-79
2024/01/13 07:59:25;;;;;;;37.60;19.17;;;;;;;-144.05;82.02;57054.88;5093267;28;20031;-79
2024/01/13 08:01:52;;;;;;;36.90;19.20;;;;;;;-144.05;81.76;57023.00;5095005;28;20031;-79
2024/01/13 08:04:18;;;;;;;39.60;19.10;;;;;;;-144.05;81.31;56984.78;5094981;28;20512;-82
2024/01/13 08:06:44;;;;;;;39.42;19.35;;;;;;;-144.05;80.80;57035.75;5098264;28;20161;-80
2024/01/13 08:09:11;;;;;;;32.45;19.05;;;;;;;-144.05;80.89;57027.25;5095617;28;20531;-83
2024/01/13 08:11:37;;;;;;;36.47;19.55;;;;;;;-144.05;80.46;57016.63;5099422;28;20220;-80
2024/01/13 08:14:05;;;;;;;35.60;18.85;;;;;;;-144.05;80.42;57050.63;5100910;28;20044;-82
2024/01/13 08:16:32;;;;;;;39.35;19.65;;;3.30;99.90;;;-144.05;80.44;57018.75;5092538;28;20485;-79
2024/01/13 08:19:00;;;;;;;33.88;18.60;;;;;;;-144.05;80.60;56999.63;5098827;28;20563;-83
2024/01/13 08:21:27;;;;;;;35.70;18.33;;;;;;;-144.05;81.51;57027.25;5097222;28;20392;-81
2024/01/13 08:23:53;;;;;;;33.97;18.17;;;;;;;-144.05;81.03;57048.50;5092142;28;20079;-78
2024/01/13 08:26:19;;;;;;;36.13;18.77;;;;;;;-144.05;80.99;57014.50;5093747;28;20032;-79
2024/01/13 08:28:45;;;;;;;36.13;17.40;;;;;;;-144.05;81.07;57046.38;5095279;28;20485;-79
2024/01/13 08:31:12;;;;;;;34.72;18.27;;;;;;;-144.05;81.30;57014.50;5103029;28;20020;-79
2024/01/13 08:33:38;;;;;;;31.60;16.60;;;;;;;-144.05;81.24;57044.25;5094314;28;20130;-81
2024/01/13 08:36:05;;;;;;;30.67;17.50;;;-0.80;99.90;;;-144.05;81.61;57033.63;5099698;28;20024;-82
2024/01/13 08:38:31;;;;;;;33.08;17.23;;;;;;;-144.05;82.09;57029.38;5092579;28;20027;-79
2024/01/13 08:40:58;;;;;;;33.05;15.93;;;;;;;-144.05;81.92;57023.00;5098117;28;20035;-81
2024/01/13 08:43:24;;;;;;;28.52;16.48;;;;;;;-144.05;81.69;57003.88;5101414;28;20046;-80
2024/01/13 08:45:50;;;;;;;30.02;16.42;;;;;;;-144.05;81.22;57018.75;5101826;28;20031;-79
2024/01/13 08:48:16;;;;;;;27.33;14.65;;;;;;;-144.05;81.56;57014.50;5092684;28;20043;-79
2024/01/13 08:50:42;;;;;;;31.50;15.77;;;;;;;-144.05;81.54;57040.00;5092382;28;20024;-81
2024/01/13 08:53:09;;;;;;;30.70;17.30;;;;;;;-144.05;82.39;57033.63;5091008;28;20023;-80
2024/01/13 08:55:35;;;;;;;29.42;15.82;;;;;;;-144.05;82.21;57018.75;5096026;28;20508;-79
2024/01/13 08:58:01;;;;;;;27.38;14.90;;;;;;;-144.05;82.69;57016.63;5091491;28;20020;-79
2024/01/13 09:00:28;;;;;;;31.70;15.10;;;;;;;-144.05;82.53;57029.38;5093395;28;20080;-81
2024/01/13 09:02:54;;;;;;;24.73;13.15;;;;;;;-144.05;82.89;57048.50;5110311;28;20560;-78
2024/01/13 09:05:21;;;;;;;26.83;13.93;;;;;;;-144.05;82.65;57016.63;5097945;28;20036;-80
2024/01/13 09:07:48;;;;;;;24.63;13.60;;;;;;;-144.05;83.49;57006.00;5095056;28;20070;-80
2024/01/13 09:10:15;;;;;;;23.48;13.18;;;;;;;-144.05;83.47;57018.75;5093390;28;20031;-80
2024/01/13 09:12:41;;;;;;;25.92;13.05;;;;;;;-144.05;83.66;57027.25;5097088;28;20529;-80
2024/01/13 09:15:09;;;;;;;24.67;13.38;;;;;;;-144.05;83.41;57054.88;5105643;28;20481;-80
2024/01/13 09:17:37;;;;;;;27.08;14.20;;;;;;;-144.05;83.22;56999.63;5101517;28;20119;-80
2024/01/13 09:20:05;;;;;;;27.15;14.98;;;;;;;-144.05;83.16;57014.50;5095437;28;20035;-78
2024/01/13 09:22:31;;;;;;;25.23;14.13;;;;;;;-144.05;83.09;57023.00;5092555;28;20431;-80
2024/01/13 09:24:58;;;;;;;25.38;14.20;;;;;;;-144.05;83.49;57003.88;5095840;28;20455;-80
2024/01/13 09:27:24;;;;;;;21.90;13.45;;;;;;;-144.05;84.34;57023.00;5093363;28;20024;-81
2024/01/13 09:29:51;;;;;;;30.40;16.17;;;;;;;-144.05;84.28;57027.25;5100929;28;20043;-81
2024/01/13 09:32:17;;;;;;;29.67;16.73;;;;;;;-144.05;83.49;57054.88;5100513;28;20020;-79
2024/01/13 09:34:43;;;;;;;30.45;15.48;;;;;;;-144.05;82.76;56989.00;5094531;28;20393;-80
2024/01/13 09:37:10;;;;;;;31.60;15.27;;;;;;;-144.05;83.62;57023.00;5094780;28;20061;-81
2024/01/13 09:39:36;;;;;;;33.17;16.13;;;;;;;-144.05;83.13;56999.63;5094467;28;20035;-79
2024/01/13 09:42:03;;;;;;;30.55;16.88;;;;;;;-144.05;83.01;57010.25;5093460;28;20353;-80
2024/01/13 09:44:30;;;;;;;31.65;17.05;;;3.60;99.90;;;-144.05;82.84;57054.88;5097108;28;20047;-78
2024/01/13 09:47:00;;;;;;;29.35;16.83;;;-0.30;99.90;;;-144.05;82.87;57052.75;5102640;28;20353;-81
2024/01/13 09:49:29;;;;;;;31.77;17.27;;;;;;;-144.05;82.70;57001.75;5094953;28;20103;-79
2024/01/13 09:51:57;;;;;;;28.50;16.25;;;;;;;-144.05;83.47;57031.50;5095711;28;20103;-80
2024/01/13 09:54:29;;;;;;;31.00;16.77;;;4.00;99.90;;;-144.05;82.90;57020.88;5095626;28;20061;-79
2024/01/13 09:56:58;;;;;;;30.40;17.90;;;-0.50;99.90;;;-144.05;82.92;57014.50;5099476;28;20020;-80
2024/01/13 09:59:28;;;;;;;29.90;17.05;;;;;;;-144.05;82.91;57006.00;5095573;28;20016;-78
2024/01/13 10:01:54;;;;;;;32.60;17.75;;;;;;;-144.05;83.72;57029.38;5098077;28;20141;-82
2024/01/13 10:04:21;;;;;;;33.33;17.95;;;;;;;-144.05;83.65;57056.97;5098030;28;20024;-81
2024/01/13 10:06:49;;;;;;;34.95;19.25;;;;;;;-144.05;83.72;57029.38;5104944;28;20031;-77
2024/01/13 10:09:15;;;;;;;33.83;17.88;;;;;;;-144.05;83.44;57001.75;5104371;28;20027;-80
2024/01/13 10:11:42;;;;;;;34.22;18.33;;;;;;;-144.05;84.42;57046.38;5113085;28;20024;-78
2024/01/13 10:14:13;;;;;;;33.60;18.13;;;;;;;-144.05;83.75;57008.13;5094232;28;20039;-78
2024/01/13 10:16:40;;;;;;;39.65;19.80;;;;;;;-144.05;84.31;57033.63;5105347;28;20103;-81
2024/01/13 10:19:09;;;;;;;34.05;18.15;;;3.40;99.90;;;-144.05;83.55;57044.25;5096722;28;20096;-78
2024/01/13 10:21:36;;;;;;;32.25;17.55;;;;;;;-144.05;84.01;57020.88;5097966;28;20394;-80
2024/01/13 10:24:03;;;;;;;34.50;18.95;;;;;;;-144.05;83.40;57006.00;5097553;28;20028;-79
2024/01/13 10:26:31;;;;;;;35.58;18.67;;;;;;;-144.05;83.81;57029.38;5103419;28;20020;-80
2024/01/13 10:28:58;;;;;;;37.20;18.52;;;;;;;-144.05;84.02;57031.50;5101236;28;20077;-78
2024/01/13 10:31:26;;;;;;;35.83;19.20;;;;;;;-144.05;85.37;57025.13;5104558;28;20024;-80
2024/01/13 10:33:53;;;;;;;37.40;19.80;;;-0.20;99.90;;;-144.05;85.49;57048.50;5109002;28;20127;-78
2024/01/13 10:36:24;;;;;;;41.60;19.90;;;-0.10;99.90;;;-144.05;85.01;57052.75;5096703;28;20020;-76
2024/01/13 10:38:51;;;;;;;41.53;19.92;;;;;;;-144.05;85.24;57040.00;5095401;28;20043;-80
2024/01/13 10:41:26;;;;;;;36.95;19.95;;;;;;;-144.05;84.36;57008.13;5099401;28;20020;-82
2024/01/13 10:44:04;;;;;;;36.33;20.40;;;-0.70;99.90;;;-144.05;84.74;57035.75;5098049;28;20446;-81
2024/01/13 10:46:37;;;;;;;40.78;20.30;;;-0.30;99.90;;;-144.05;85.17;57031.50;5093672;28;20032;-80
2024/01/13 10:49:16;;;;;;;39.13;21.08;;;3.60;99.90;;;-144.05;84.77;57040.00;5103454;28;20063;-79
2024/01/13 10:51:56;;;;;;;37.30;19.95;;;3.80;99.90;;;-144.05;85.46;57048.50;5094970;28;20095;-79
2024/01/13 10:54:27;;;;;;;36.80;19.70;;;;;;;-144.05;84.69;57012.38;5099028;28;20028;-79